createdAt,value
2018-06-08T00:01:36.647Z,21.60
2018-06-08T00:04:05.133Z,21.60
2018-06-08T00:06:33.582Z,21.60
2018-06-08T00:09:02.028Z,21.60
2018-06-08T00:11:30.466Z,21.50
2018-06-08T00:13:58.898Z,21.50
2018-06-08T00:16:27.323Z,21.50
2018-06-08T00:18:55.851Z,21.50
2018-06-08T00:21:24.455Z,21.50
2018-06-08T00:23:52.939Z,21.50
2018-06-08T00:26:21.354Z,21.50
2018-06-08T00:28:49.834Z,21.50
2018-06-08T00:31:18.319Z,21.50
2018-06-08T00:33:46.774Z,21.50
2018-06-08T00:36:15.263Z,21.40
2018-06-08T00:38:43.712Z,21.40
2018-06-08T00:41:12.198Z,21.40
2018-06-08T00:43:40.709Z,21.40
2018-06-08T00:46:09.159Z,21.40
2018-06-08T00:48:37.647Z,21.40
2018-06-08T00:51:06.106Z,21.30
2018-06-08T00:53:34.578Z,21.30
2018-06-08T00:56:03.019Z,21.30
2018-06-08T00:58:31.475Z,21.30
2018-06-08T01:00:59.919Z,21.30
2018-06-08T01:03:28.414Z,21.30
2018-06-08T01:05:56.873Z,21.30
2018-06-08T01:08:25.286Z,21.20
2018-06-08T01:10:54.357Z,21.20
2018-06-08T01:13:22.837Z,21.20
2018-06-08T01:15:51.319Z,21.20
2018-06-08T01:18:19.758Z,21.20
2018-06-08T01:20:48.291Z,21.20
2018-06-08T01:23:16.753Z,21.10
2018-06-08T01:25:45.208Z,21.10
2018-06-08T01:28:13.661Z,21.10
2018-06-08T01:30:42.135Z,21.10
2018-06-08T01:33:10.604Z,21.10
2018-06-08T01:35:39.074Z,21.00
2018-06-08T01:38:07.517Z,21.00
2018-06-08T01:40:35.969Z,21.00
2018-06-08T01:43:04.426Z,20.90
2018-06-08T01:45:32.887Z,20.90
2018-06-08T01:48:01.320Z,20.90
2018-06-08T01:50:29.773Z,20.90
2018-06-08T01:52:58.217Z,20.90
2018-06-08T01:55:26.700Z,20.90
2018-06-08T01:57:55.138Z,20.80
2018-06-08T02:00:23.583Z,20.80
2018-06-08T02:02:52.071Z,20.80
2018-06-08T02:05:20.589Z,20.80
2018-06-08T02:07:49.110Z,20.80
2018-06-08T02:10:17.534Z,20.80
2018-06-08T02:12:46.059Z,20.80
2018-06-08T02:15:14.512Z,20.70
2018-06-08T02:17:42.946Z,20.70
2018-06-08T02:20:11.503Z,20.70
2018-06-08T02:22:39.944Z,20.70
2018-06-08T02:25:08.834Z,20.60
2018-06-08T02:27:37.308Z,20.60
2018-06-08T02:30:05.819Z,20.60
2018-06-08T02:32:34.306Z,20.60
2018-06-08T02:35:03.067Z,20.60
2018-06-08T02:37:31.496Z,20.60
2018-06-08T02:39:59.945Z,20.50
2018-06-08T02:42:28.368Z,20.50
2018-06-08T02:44:56.854Z,20.50
2018-06-08T02:47:25.338Z,20.50
2018-06-08T02:49:53.788Z,20.50
2018-06-08T02:52:22.311Z,20.50
2018-06-08T02:54:50.770Z,20.50
2018-06-08T02:57:19.196Z,20.40
2018-06-08T02:59:47.634Z,20.40
2018-06-08T03:02:16.093Z,20.40
2018-06-08T03:04:44.692Z,20.40
2018-06-08T03:07:13.187Z,20.40
2018-06-08T03:09:41.692Z,20.40
2018-06-08T03:12:10.247Z,20.40
2018-06-08T03:14:38.698Z,20.40
2018-06-08T03:17:07.215Z,20.40
2018-06-08T03:19:35.668Z,20.40
2018-06-08T03:22:04.178Z,20.40
2018-06-08T03:24:32.642Z,20.40
2018-06-08T03:27:01.108Z,20.40
2018-06-08T03:29:29.542Z,20.40
2018-06-08T03:31:58.024Z,20.50
2018-06-08T03:34:26.513Z,20.50
2018-06-08T03:36:55.016Z,20.50
2018-06-08T03:39:23.531Z,20.50
2018-06-08T03:41:52.035Z,20.50
2018-06-08T03:44:20.480Z,20.50
2018-06-08T03:46:48.938Z,20.50
2018-06-08T03:49:17.383Z,20.50
2018-06-08T03:51:45.842Z,20.50
2018-06-08T03:54:14.304Z,20.50
2018-06-08T03:56:42.978Z,20.40
2018-06-08T03:59:11.441Z,20.40
2018-06-08T04:01:39.986Z,20.40
2018-06-08T04:04:08.427Z,20.40
2018-06-08T04:06:36.895Z,20.40
2018-06-08T04:09:07.379Z,20.40
2018-06-08T04:11:35.865Z,20.40
2018-06-08T04:14:04.316Z,20.40
2018-06-08T04:16:32.762Z,20.40
2018-06-08T04:19:02.036Z,20.50
2018-06-08T04:21:30.462Z,20.50
2018-06-08T04:23:58.935Z,20.50
2018-06-08T04:26:27.367Z,20.60
2018-06-08T04:28:55.837Z,20.60
2018-06-08T04:31:24.296Z,20.60
2018-06-08T04:33:52.731Z,20.60
2018-06-08T04:36:21.198Z,20.60
2018-06-08T04:38:49.666Z,20.60
2018-06-08T04:41:18.147Z,20.60
2018-06-08T04:43:46.638Z,20.70
2018-06-08T04:46:15.076Z,20.70
2018-06-08T04:48:43.527Z,20.60
2018-06-08T04:51:12.009Z,20.60
2018-06-08T04:53:40.472Z,20.60
2018-06-08T04:56:08.971Z,20.60
2018-06-08T04:58:37.488Z,20.50
2018-06-08T05:01:05.940Z,20.50
2018-06-08T05:03:34.456Z,20.40
2018-06-08T05:06:03.386Z,20.50
2018-06-08T05:08:32.227Z,20.50
2018-06-08T05:11:01.382Z,20.60
2018-06-08T05:13:29.915Z,20.70
2018-06-08T05:15:58.360Z,20.90
2018-06-08T05:18:26.821Z,21.10
2018-06-08T05:20:55.262Z,21.20
2018-06-08T05:23:23.694Z,21.30
2018-06-08T05:25:52.578Z,21.30
2018-06-08T05:28:21.035Z,21.30
2018-06-08T05:30:49.556Z,21.40
2018-06-08T05:33:18.023Z,21.40
2018-06-08T05:35:46.578Z,21.40
2018-06-08T05:38:15.575Z,21.50
2018-06-08T05:40:44.203Z,21.50
2018-06-08T05:43:12.890Z,21.50
2018-06-08T05:45:41.385Z,21.50
2018-06-08T05:48:09.903Z,21.60
2018-06-08T05:50:38.326Z,21.60
2018-06-08T05:53:06.785Z,21.60
2018-06-08T05:55:37.476Z,21.60
2018-06-08T05:58:05.918Z,21.70
2018-06-08T06:00:34.367Z,21.70
2018-06-08T06:03:02.850Z,21.70
2018-06-08T06:05:31.314Z,21.80
2018-06-08T06:07:59.807Z,21.90
2018-06-08T06:10:28.275Z,22.00
2018-06-08T06:12:56.766Z,22.10
2018-06-08T06:15:25.218Z,22.20
2018-06-08T06:17:53.710Z,22.30
2018-06-08T06:20:22.170Z,22.40
2018-06-08T06:22:50.709Z,22.40
2018-06-08T06:25:19.187Z,22.40
2018-06-08T06:27:47.654Z,22.50
2018-06-08T06:30:16.551Z,22.50
2018-06-08T06:32:45.039Z,22.60
2018-06-08T06:35:13.491Z,22.70
2018-06-08T06:37:41.970Z,22.70
2018-06-08T06:40:11.098Z,22.90
2018-06-08T06:42:40.274Z,23.00
2018-06-08T06:45:08.791Z,23.10
2018-06-08T06:47:37.299Z,23.20
2018-06-08T06:50:05.970Z,23.20
2018-06-08T06:52:34.438Z,23.30
2018-06-08T06:55:02.906Z,23.40
2018-06-08T06:57:31.838Z,23.60
2018-06-08T07:00:00.278Z,23.70
2018-06-08T07:02:28.742Z,23.90
2018-06-08T07:04:57.227Z,24.00
2018-06-08T07:07:25.699Z,24.20
2018-06-08T07:09:54.170Z,24.10
2018-06-08T07:12:22.770Z,24.10
2018-06-08T07:14:51.250Z,24.10
2018-06-08T07:17:19.731Z,24.10
2018-06-08T07:19:48.228Z,24.10
2018-06-08T07:22:17.129Z,24.30
2018-06-08T07:24:45.931Z,24.50
2018-06-08T07:27:14.342Z,24.70
2018-06-08T07:29:42.827Z,24.70
2018-06-08T07:32:11.283Z,24.60
2018-06-08T07:34:39.732Z,24.60
2018-06-08T07:37:08.218Z,24.60
2018-06-08T07:39:36.698Z,24.50
2018-06-08T07:42:05.154Z,24.40
2018-06-08T07:44:33.634Z,24.30
2018-06-08T07:47:02.160Z,24.30
2018-06-08T07:49:30.600Z,24.20
2018-06-08T07:51:59.119Z,24.20
2018-06-08T07:54:27.594Z,24.10
2018-06-08T07:56:56.143Z,24.10
2018-06-08T07:59:24.598Z,24.20
2018-06-08T08:01:53.270Z,24.20
2018-06-08T08:04:21.646Z,24.20
2018-06-08T08:06:50.118Z,24.20
2018-06-08T08:09:18.647Z,24.30
2018-06-08T08:11:47.118Z,24.30
2018-06-08T08:14:15.596Z,24.30
2018-06-08T08:16:44.077Z,24.30
2018-06-08T08:19:12.616Z,24.40
2018-06-08T08:21:41.162Z,24.40
2018-06-08T08:24:09.899Z,24.40
2018-06-08T08:26:38.362Z,24.40
2018-06-08T08:29:06.835Z,24.40
2018-06-08T08:31:35.299Z,24.30
2018-06-08T08:34:03.752Z,24.20
2018-06-08T08:36:32.199Z,24.10
2018-06-08T08:39:00.635Z,24.00
2018-06-08T08:41:29.087Z,23.90
2018-06-08T08:43:57.578Z,23.80
2018-06-08T08:46:26.055Z,23.80
2018-06-08T08:48:54.503Z,23.70
2018-06-08T08:51:22.941Z,23.60
2018-06-08T08:53:51.414Z,23.60
2018-06-08T08:56:19.882Z,23.50
2018-06-08T08:58:48.341Z,23.50
2018-06-08T09:01:16.819Z,23.60
2018-06-08T09:03:45.302Z,23.60
2018-06-08T09:06:13.740Z,23.60
2018-06-08T09:08:42.695Z,23.60
2018-06-08T09:11:11.155Z,23.60
2018-06-08T09:13:39.612Z,23.70
2018-06-08T09:16:08.082Z,23.90
2018-06-08T09:18:36.592Z,24.00
2018-06-08T09:21:05.055Z,24.10
2018-06-08T09:23:33.495Z,24.20
2018-06-08T09:26:01.953Z,24.30
2018-06-08T09:28:30.411Z,24.30
2018-06-08T09:30:59.570Z,24.50
2018-06-08T09:33:28.047Z,24.60
2018-06-08T09:35:56.498Z,24.60
2018-06-08T09:38:24.951Z,24.60
2018-06-08T09:40:53.403Z,24.60
2018-06-08T09:43:21.858Z,24.60
2018-06-08T09:45:50.343Z,24.60
2018-06-08T09:48:18.799Z,24.60
2018-06-08T09:50:47.251Z,24.60
2018-06-08T09:53:15.683Z,24.60
2018-06-08T09:55:44.146Z,24.50
2018-06-08T09:58:12.601Z,24.50
2018-06-08T10:00:42.373Z,24.40
2018-06-08T10:03:11.022Z,24.30
2018-06-08T10:05:39.508Z,24.20
2018-06-08T10:08:08.015Z,24.20
2018-06-08T10:10:36.466Z,24.10
2018-06-08T10:13:05.481Z,24.00
2018-06-08T10:15:33.958Z,24.00
2018-06-08T10:18:02.403Z,23.90
2018-06-08T10:20:30.863Z,23.80
2018-06-08T10:22:59.351Z,23.70
2018-06-08T10:25:27.818Z,23.70
2018-06-08T10:27:56.266Z,23.60
2018-06-08T10:30:24.755Z,23.50
2018-06-08T10:32:53.215Z,23.50
2018-06-08T10:35:21.696Z,23.40
2018-06-08T10:37:50.189Z,23.30
2018-06-08T10:40:18.642Z,23.30
2018-06-08T10:42:47.110Z,23.30
2018-06-08T10:45:15.591Z,23.20
2018-06-08T10:47:44.081Z,23.20
2018-06-08T10:50:12.547Z,23.10
2018-06-08T10:52:40.994Z,23.10
2018-06-08T10:55:09.456Z,23.00
2018-06-08T10:57:37.942Z,22.90
2018-06-08T11:00:06.400Z,22.80
2018-06-08T11:02:34.909Z,22.70
2018-06-08T11:05:03.381Z,22.60
2018-06-08T11:07:31.887Z,22.60
2018-06-08T11:10:00.343Z,22.50
2018-06-08T11:12:28.827Z,22.40
2018-06-08T11:14:57.280Z,22.30
2018-06-08T11:17:25.723Z,22.20
2018-06-08T11:19:54.238Z,22.20
2018-06-08T11:22:22.656Z,22.10
2018-06-08T11:24:51.117Z,22.10
2018-06-08T11:27:19.566Z,22.00
2018-06-08T11:29:48.014Z,22.00
2018-06-08T11:32:16.448Z,21.90
2018-06-08T11:34:44.912Z,21.80
2018-06-08T11:39:41.527Z,21.70
2018-06-08T11:42:10.000Z,21.60
2018-06-08T11:44:38.467Z,21.60
2018-06-08T11:47:06.944Z,21.60
2018-06-08T11:49:35.473Z,21.60
2018-06-08T11:52:03.926Z,21.50
2018-06-08T11:54:32.407Z,21.40
2018-06-08T11:57:00.877Z,21.30
2018-06-08T11:59:29.377Z,21.30
2018-06-08T12:01:57.889Z,21.20
2018-06-08T12:04:26.351Z,21.20
2018-06-08T12:06:54.799Z,21.20
2018-06-08T12:09:23.244Z,21.20
2018-06-08T12:11:51.695Z,21.20
2018-06-08T12:14:20.166Z,21.10
2018-06-08T12:16:48.635Z,21.10
2018-06-08T12:19:17.103Z,21.10
2018-06-08T12:21:45.575Z,21.10
2018-06-08T12:24:14.027Z,21.20
2018-06-08T12:26:42.505Z,21.20
2018-06-08T12:29:10.972Z,21.20
2018-06-08T12:31:39.440Z,21.20
2018-06-08T12:34:07.910Z,21.20
2018-06-08T12:36:36.435Z,21.10
2018-06-08T12:39:07.138Z,21.20
2018-06-08T12:41:36.175Z,21.20
2018-06-08T12:44:04.633Z,21.30
2018-06-08T12:46:33.132Z,21.30
2018-06-08T12:49:01.668Z,21.30
2018-06-08T12:51:30.128Z,21.20
2018-06-08T12:53:58.588Z,21.20
2018-06-08T12:56:27.095Z,21.20
2018-06-08T12:58:55.562Z,21.20
2018-06-08T13:01:24.043Z,21.20
2018-06-08T13:03:52.506Z,21.20
2018-06-08T13:06:20.986Z,21.20
2018-06-08T13:08:49.571Z,21.30
2018-06-08T13:11:18.054Z,21.40
2018-06-08T13:13:46.515Z,21.30
2018-06-08T13:16:16.415Z,21.30
2018-06-08T13:18:45.063Z,21.30
2018-06-08T13:21:13.572Z,21.30
2018-06-08T13:23:42.003Z,21.40
2018-06-08T13:26:10.454Z,21.50
2018-06-08T13:28:38.945Z,21.70
2018-06-08T13:31:07.413Z,21.80
2018-06-08T13:33:35.890Z,22.10
2018-06-08T13:36:04.436Z,22.40
2018-06-08T13:38:32.920Z,22.70
2018-06-08T13:41:01.385Z,22.90
2018-06-08T13:43:29.867Z,23.00
2018-06-08T13:45:58.355Z,23.10
2018-06-08T13:48:26.828Z,23.10
2018-06-08T13:50:55.313Z,23.20
2018-06-08T13:53:23.791Z,23.20
2018-06-08T13:55:52.295Z,23.10
2018-06-08T13:58:20.747Z,23.20
2018-06-08T14:00:49.218Z,23.40
2018-06-08T14:03:17.816Z,23.50
2018-06-08T14:05:46.348Z,23.60
2018-06-08T14:08:14.895Z,23.60
2018-06-08T14:10:43.371Z,23.50
2018-06-08T14:13:11.874Z,23.60
2018-06-08T14:15:40.381Z,23.60
2018-06-08T14:18:08.858Z,23.60
2018-06-08T14:20:37.400Z,23.70
2018-06-08T14:23:05.961Z,23.70
2018-06-08T14:25:34.446Z,23.80
2018-06-08T14:28:03.111Z,23.80
2018-06-08T14:30:31.562Z,23.90
2018-06-08T14:33:00.029Z,23.90
2018-06-08T14:35:28.662Z,23.90
2018-06-08T14:37:57.192Z,23.90
2018-06-08T14:40:25.728Z,23.90
2018-06-08T14:42:54.175Z,23.90
2018-06-08T14:45:22.697Z,23.80
2018-06-08T14:47:51.147Z,23.70
2018-06-08T14:52:47.761Z,23.40
2018-06-08T14:55:16.215Z,23.30
2018-06-08T14:57:44.650Z,23.40
2018-06-08T15:00:16.498Z,23.50
2018-06-08T15:02:44.983Z,23.70
2018-06-08T15:05:13.476Z,23.90
2018-06-08T15:07:41.971Z,24.00
2018-06-08T15:10:10.454Z,24.20
2018-06-08T15:12:38.895Z,24.30
2018-06-08T15:15:07.372Z,24.30
2018-06-08T15:17:35.852Z,24.30
2018-06-08T15:20:04.324Z,24.30
2018-06-08T15:22:32.782Z,24.20
2018-06-08T15:25:01.235Z,24.10
2018-06-08T15:27:29.693Z,24.10
2018-06-08T15:29:58.230Z,24.20
2018-06-08T15:32:26.682Z,24.20
2018-06-08T15:34:55.223Z,24.20
2018-06-08T15:37:23.718Z,24.20
2018-06-08T15:39:52.173Z,24.20
2018-06-08T15:42:20.647Z,24.10
2018-06-08T15:44:49.095Z,24.10
2018-06-08T15:47:17.578Z,24.20
2018-06-08T15:49:46.019Z,24.20
2018-06-08T15:52:14.504Z,24.10
2018-06-08T15:54:43.051Z,24.10
2018-06-08T15:57:11.551Z,24.10
2018-06-08T15:59:39.998Z,24.00
2018-06-08T16:02:08.523Z,23.80
2018-06-08T16:04:36.988Z,23.80
2018-06-08T16:07:05.467Z,23.70
2018-06-08T16:09:33.923Z,23.60
2018-06-08T16:12:02.637Z,23.50
2018-06-08T16:14:31.082Z,23.40
2018-06-08T16:16:59.543Z,23.30
2018-06-08T16:19:28.017Z,23.30
2018-06-08T16:21:56.523Z,23.40
2018-06-08T16:24:24.984Z,23.30
2018-06-08T16:26:53.492Z,23.30
2018-06-08T16:29:21.955Z,23.40
2018-06-08T16:31:50.401Z,23.40
2018-06-08T16:34:18.906Z,23.40
2018-06-08T16:36:47.394Z,23.40
2018-06-08T16:39:15.867Z,23.30
2018-06-08T16:41:44.421Z,23.30
2018-06-08T16:46:41.042Z,23.40
2018-06-08T16:49:09.506Z,23.40
2018-06-08T16:51:38.021Z,23.50
2018-06-08T16:54:06.530Z,23.50
2018-06-08T16:56:35.065Z,23.50
2018-06-08T16:59:03.553Z,23.50
2018-06-08T17:01:31.994Z,23.50
2018-06-08T17:04:00.450Z,23.50
2018-06-08T17:06:29.319Z,23.50
2018-06-08T17:08:57.776Z,23.50
2018-06-08T17:11:26.226Z,23.50
2018-06-08T17:13:54.704Z,23.50
2018-06-08T17:16:23.190Z,23.50
2018-06-08T17:18:51.637Z,23.60
2018-06-08T17:23:48.221Z,23.60
2018-06-08T17:26:16.674Z,23.70
2018-06-08T17:28:45.123Z,23.70
2018-06-08T17:31:13.606Z,23.70
2018-06-08T17:33:42.030Z,23.70
2018-06-08T17:38:38.614Z,23.70
2018-06-08T17:41:07.075Z,23.70
2018-06-08T17:43:35.511Z,23.80
2018-06-08T17:46:03.971Z,23.90
2018-06-08T17:48:32.462Z,23.90
2018-06-08T17:51:00.915Z,23.80
2018-06-08T17:53:29.387Z,23.90
2018-06-08T17:55:58.274Z,23.80
2018-06-08T17:58:26.730Z,23.80
2018-06-08T18:00:55.171Z,23.80
2018-06-08T18:03:24.319Z,23.70
2018-06-08T18:05:54.294Z,23.70
2018-06-08T18:08:23.020Z,23.60
2018-06-08T18:10:51.470Z,23.60
2018-06-08T18:13:19.971Z,23.50
2018-06-08T18:15:48.442Z,23.40
2018-06-08T18:18:16.906Z,23.30
2018-06-08T18:20:45.399Z,23.30
2018-06-08T18:23:13.870Z,23.20
2018-06-08T18:25:42.595Z,23.20
2018-06-08T18:28:11.090Z,23.10
2018-06-08T18:30:39.551Z,23.00
2018-06-08T18:33:08.028Z,23.00
2018-06-08T18:35:36.475Z,22.90
2018-06-08T18:38:05.034Z,22.90
2018-06-08T18:40:33.489Z,22.80
2018-06-08T18:43:02.463Z,22.70
2018-06-08T18:45:30.946Z,22.60
2018-06-08T18:47:59.451Z,22.60
2018-06-08T18:50:27.901Z,22.50
2018-06-08T18:52:56.369Z,22.40
2018-06-08T18:55:24.827Z,22.30
2018-06-08T18:57:53.747Z,22.20
2018-06-08T19:00:22.232Z,22.20
2018-06-08T19:02:50.990Z,22.10
2018-06-08T19:05:19.488Z,22.10
2018-06-08T19:07:47.959Z,22.00
2018-06-08T19:10:16.426Z,21.90
2018-06-08T19:15:13.043Z,21.80
2018-06-08T19:17:41.496Z,21.80
2018-06-08T19:20:09.982Z,21.70
2018-06-08T19:22:38.450Z,21.60
2018-06-08T19:25:06.907Z,21.60
2018-06-08T19:27:35.385Z,21.60
2018-06-08T19:30:03.911Z,21.50
2018-06-08T19:32:32.376Z,21.40
2018-06-08T19:35:00.911Z,21.40
2018-06-08T19:37:29.343Z,21.40
2018-06-08T19:39:57.820Z,21.30
2018-06-08T19:42:26.281Z,21.30
2018-06-08T19:44:54.741Z,21.30
2018-06-08T19:47:23.236Z,21.30
2018-06-08T19:49:51.974Z,21.30
2018-06-08T19:52:20.728Z,21.30
2018-06-08T19:54:49.633Z,21.20
2018-06-08T19:57:18.103Z,21.20
2018-06-08T19:59:46.623Z,21.20
2018-06-08T20:02:15.086Z,21.20
2018-06-08T20:04:43.559Z,21.20
2018-06-08T20:07:12.047Z,21.20
2018-06-08T20:09:40.870Z,21.20
2018-06-08T20:12:09.818Z,21.20
2018-06-08T20:14:38.339Z,21.10
2018-06-08T20:17:06.809Z,21.10
2018-06-08T20:19:35.294Z,21.00
2018-06-08T20:22:03.829Z,21.00
2018-06-08T20:24:32.295Z,20.90
2018-06-08T20:27:00.738Z,20.90
2018-06-08T20:29:29.975Z,20.90
2018-06-08T20:31:58.459Z,20.90
2018-06-08T20:34:27.435Z,20.90
2018-06-08T20:36:57.182Z,20.80
2018-06-08T20:39:25.695Z,20.80
2018-06-08T20:41:54.219Z,20.80
2018-06-08T20:44:22.706Z,20.80
2018-06-08T20:46:51.231Z,20.80
2018-06-08T20:49:19.741Z,20.80
2018-06-08T20:51:48.642Z,20.80
2018-06-08T20:54:17.087Z,20.80
2018-06-08T20:56:46.146Z,20.80
2018-06-08T20:59:14.628Z,20.80
2018-06-08T21:01:43.348Z,20.80
2018-06-08T21:04:11.830Z,20.80
2018-06-08T21:06:40.399Z,20.80
2018-06-08T21:09:09.147Z,20.80
2018-06-08T21:11:37.614Z,20.70
2018-06-08T21:14:06.998Z,20.70
2018-06-08T21:16:36.406Z,20.70
2018-06-08T21:19:05.286Z,20.70
2018-06-08T21:21:33.779Z,20.70
2018-06-08T21:24:02.255Z,20.70
2018-06-08T21:26:30.727Z,20.70
2018-06-08T21:28:59.192Z,20.60
2018-06-08T21:31:28.145Z,20.60
2018-06-08T21:33:56.623Z,20.60
2018-06-08T21:36:25.159Z,20.60
2018-06-08T21:38:53.619Z,20.60
2018-06-08T21:41:22.106Z,20.60
2018-06-08T21:43:50.550Z,20.60
2018-06-08T21:46:19.436Z,20.60
2018-06-08T21:48:47.916Z,20.50
2018-06-08T21:51:16.359Z,20.50
2018-06-08T21:53:44.831Z,20.50
2018-06-08T21:56:15.815Z,20.50
2018-06-08T21:58:44.270Z,20.40
2018-06-08T22:01:12.698Z,20.40
2018-06-08T22:03:41.138Z,20.30
2018-06-08T22:06:09.605Z,20.30
2018-06-08T22:08:38.090Z,20.20
2018-06-08T22:11:06.547Z,20.20
2018-06-08T22:13:34.983Z,20.20
2018-06-08T22:16:03.432Z,20.10
2018-06-08T22:18:34.350Z,20.10
2018-06-08T22:21:02.809Z,20.10
2018-06-08T22:23:31.239Z,20.10
2018-06-08T22:25:59.662Z,20.10
2018-06-08T22:28:28.088Z,20.10
2018-06-08T22:30:56.508Z,20.00
2018-06-08T22:33:24.959Z,20.00
2018-06-08T22:35:53.399Z,20.00
2018-06-08T22:38:21.824Z,20.00
2018-06-08T22:40:50.262Z,19.90
2018-06-08T22:43:18.703Z,19.90
2018-06-08T22:45:47.157Z,19.90
2018-06-08T22:48:15.607Z,19.80
2018-06-08T22:50:44.073Z,19.80
2018-06-08T22:53:12.527Z,19.70
2018-06-08T22:55:40.964Z,19.70
2018-06-08T22:58:09.418Z,19.70
2018-06-08T23:00:37.879Z,19.70
2018-06-08T23:03:06.324Z,19.60
2018-06-08T23:05:34.766Z,19.60
2018-06-08T23:08:03.220Z,19.60
2018-06-08T23:10:31.674Z,19.50
2018-06-08T23:13:00.128Z,19.50
2018-06-08T23:15:28.566Z,19.50
2018-06-08T23:17:56.990Z,19.40
2018-06-08T23:20:25.423Z,19.40
2018-06-08T23:22:53.852Z,19.40
2018-06-08T23:25:22.292Z,19.30
2018-06-08T23:27:50.735Z,19.30
2018-06-08T23:30:19.647Z,19.30
2018-06-08T23:32:48.124Z,19.30
2018-06-08T23:35:22.996Z,19.30
2018-06-08T23:37:52.419Z,19.30
2018-06-08T23:40:23.227Z,19.20
2018-06-08T23:42:51.960Z,19.20
2018-06-08T23:45:21.313Z,19.20
2018-06-08T23:47:50.715Z,19.10
2018-06-08T23:50:21.519Z,19.10
2018-06-08T23:52:49.959Z,19.10
2018-06-08T23:55:18.411Z,19.10
2018-06-08T23:57:46.838Z,19.00
